Главная страница
METAR-TAF:

METAR-TAF

Аэропорты :

Тбилиси, Грузия

широта: 41-40-09N, долгота: 044-57-17E, высота над уровнем моря: 495 м

Текущие метеонаблюдения

Эта сводка был подготовлена 35 минут назад, в 16:30 UTC
Ветер 5 Узел переменных направлений
Температура 27°C
Влажность 28%
Давление 1019 hPa
Видимость 10 км и более
Рассеянная облачность на высоте 5000 фута, Кучево-дождевые.

METAR: UGTB 191630Z VRB05KT 9999 BKN050CB 27/07 Q1019 R13R/CLRD70 NOSIG

Время: 21:05 (17:05 UTC)

Прогноз

Эта сводка был подготовлена 6 часа и 5 минут назад, в 11:00 UTC
Прогноз действительный с 19-го 12 UTC до 20-го 12 UTC
Ветер 8 Узел от юго-юго-восточный
Видимость 10 км и более
Нет облачности ниже 1500 м, и нет кучево-дождевой облачности
временами
С 19-го 17 UTC до 20-го 06 UTC
Ветер 10 Узел от северо-восточный

TAF: UGTB 191100Z 1912/2012 16008KT CAVOK TX30/2012Z TN19/2002Z TEMPO 1917/2006 04010KT

Метеонаблюдения и прогнозы для более 4000 аэропортов (сводки METAR и TAF).

Имеющиеся станции представлены на карте желтыми и красными точками.

Чтобы увидеть название станции, наведите на нее мышь.

Затем щелкните, чтобы увидеть метеонаблюдения и метеопрогнозы.

Управление картой: чтобы увеличить масштаб, щелкните зеленые кнопки с черным крестиком; чтобы уменьшить масштаб, щелкните зеленую кнопку с тире; для просмотра соседних карт щелкайте зеленые стрелки.


METAR-TAF: